Latest Weather Observations for Bega

IDN60801

Issued at 5:05 pm EST Monday 21 April 2014 (issued every 30 minutes, with the page automatically refreshed every 10 minutes)

About weather observations | Map of weather stations | Latest weather observations for NSW | Other Formats
Station Details ID: 069139 Name: BEGA AWS Lat: -36.67 Lon: 149.82 Height: 41.0 m
Data from the previous 72 hours. | See also: Recent months at Bega
Date/Time
EST
Temp
°C
App
Temp
°C
Dew
Point
Rel
Hum
%
Delta-T
°C
Wind Press
QNH
hPa
Press
MSL
hPa
Rain
since 9 am
mm
Dir
 
Spd
km/h
Gust
km/h
Spd
kts
Gust
kts
21/05:00pm 16.9 16.0 10.5 66 3.4 NNE 6 7 3 4 1018.3 - 0.0
21/04:30pm 17.2 15.3 10.6 65 3.5 NE 11 13 6 7 1018.3 - 0.0
21/04:00pm 17.6 14.8 10.0 61 4.0 NE 15 20 8 11 1018.4 - 0.0
21/03:30pm 18.4 15.5 9.5 56 4.7 NE 15 22 8 12 1018.5 - 0.0
21/03:00pm 18.9 15.6 9.4 54 5.0 E 17 20 9 11 1018.5 1018.4 0.0
21/02:30pm 18.7 16.1 9.2 54 5.0 E 13 19 7 10 1018.6 - 0.0
21/02:00pm 18.4 15.7 8.9 54 5.0 ESE 13 17 7 9 1018.5 - 0.0
21/01:30pm 19.2 16.3 8.2 49 5.7 ESE 13 19 7 10 1018.7 - 0.0
21/01:00pm 19.6 18.7 7.7 46 6.1 S 2 6 1 3 1019.0 - 0.0
21/12:30pm 19.6 17.8 7.0 44 6.4 E 6 9 3 5 1019.3 - 0.0
21/12:00pm 19.8 17.6 7.9 46 6.1 E 9 13 5 7 1019.7 1019.6 0.0
21/11:30am 19.3 17.4 6.8 44 6.3 E 6 11 3 6 1020.4 - 0.0
21/11:00am 19.0 17.0 6.1 43 6.4 E 6 9 3 5 1020.8 - 0.0
21/10:30am 17.9 16.8 10.0 60 4.2 E 6 7 3 4 1021.2 - 0.0
21/10:00am 17.2 16.3 11.2 68 3.2 ENE 7 11 4 6 1021.3 - 0.0
21/09:30am 15.1 13.6 9.2 68 3.0 NE 7 9 4 5 1021.5 - 0.0
21/09:00am 13.7 12.3 9.4 75 2.2 NE 7 9 4 5 1021.8 1021.7 0.0
21/08:30am 11.8 11.6 9.2 84 1.3 CALM 0 0 0 0 1021.8 - 0.0
21/08:00am 9.4 9.1 8.6 95 0.4 CALM 0 0 0 0 1021.5 - 0.0
21/07:30am 7.9 7.3 7.6 98 0.1 CALM 0 0 0 0 1021.2 - 0.0
21/07:00am 7.4 6.8 7.3 99 0.0 CALM 0 0 0 0 1020.9 - 0.0
21/06:30am 6.7 4.8 6.6 99 0.0 N 6 7 3 4 1020.6 - 0.0
21/06:00am 6.4 5.2 6.3 99 0.0 WSW 2 7 1 4 1020.2 1020.1 0.0
21/05:30am 7.1 6.3 6.7 97 0.2 CALM 0 0 0 0 1020.0 - 0.0
21/05:00am 8.2 7.7 7.9 98 0.1 CALM 0 0 0 0 1019.8 - 0.0
21/04:30am 7.7 7.0 7.1 96 0.3 CALM 0 0 0 0 1019.6 - 0.0
21/04:00am 9.4 8.7 8.6 95 0.4 WSW 2 7 1 4 1019.3 - 0.0
21/03:30am 9.0 8.7 8.5 97 0.2 CALM 0 0 0 0 1019.3 - 0.0
21/03:00am 10.0 9.8 8.9 93 0.5 CALM 0 0 0 0 1019.1 1019.0 0.0
21/02:30am 10.1 9.9 8.9 92 0.6 CALM 0 0 0 0 1019.1 - 0.0
21/02:00am 11.2 11.1 9.6 90 0.8 CALM 0 0 0 0 1019.2 - 0.0
21/01:30am 11.9 12.0 10.1 89 0.9 CALM 0 0 0 0 1019.3 - 0.0
21/01:00am 12.4 12.5 10.3 87 1.1 CALM 0 0 0 0 1019.3 - 0.0
21/12:30am 12.8 12.9 10.3 85 1.3 CALM 0 0 0 0 1019.3 - 0.0
21/12:00am 13.3 13.5 10.5 83 1.5 SW 0 0 0 0 1019.3 1019.2 0.0
 
Date/Time
EST
Temp
°C
App
Temp
°C
Dew
Point
Rel
Hum
%
Delta-T
°C
Wind Press
QNH
hPa
Press
MSL
hPa
Rain
since 9 am
mm
Dir
 
Spd
km/h
Gust
km/h
Spd
kts
Gust
kts
20/11:30pm 13.3 13.2 9.4 77 2.0 CALM 0 0 0 0 1019.3 - 0.0
20/11:00pm 13.7 13.4 8.7 72 2.5 CALM 0 2 0 1 1019.4 - 0.0
20/10:30pm 13.7 12.3 9.0 73 2.4 WSW 6 7 3 4 1019.4 - 0.0
20/10:00pm 13.8 13.7 9.5 75 2.2 CALM 0 0 0 0 1019.5 - 0.0
20/09:30pm 14.0 13.8 9.0 72 2.5 CALM 0 0 0 0 1019.2 - 0.0
20/09:00pm 14.0 13.7 8.6 70 2.7 CALM 0 0 0 0 1019.0 1018.9 0.0
20/08:30pm 14.4 14.0 8.4 67 3.0 CALM 0 4 0 2 1018.8 - 0.0
20/08:00pm 14.2 12.3 9.2 72 2.6 S 9 11 5 6 1018.5 - 0.0
20/07:30pm 14.2 12.0 9.4 73 2.5 SSW 11 19 6 10 1018.3 - 0.0
20/07:00pm 13.9 13.2 8.7 71 2.6 SW 2 7 1 4 1017.8 - 0.0
20/06:30pm 15.0 13.5 8.3 64 3.4 SSW 6 7 3 4 1017.3 - 0.0
20/06:00pm 15.0 13.4 7.8 62 3.6 SSW 6 7 3 4 1016.9 1016.9 0.0
20/05:30pm 15.1 14.2 7.6 61 3.7 S 2 7 1 4 1016.4 - 0.0
20/05:00pm 15.9 13.7 7.9 59 4.0 SE 9 13 5 7 1016.1 - 0.0
20/04:30pm 16.8 13.5 8.2 57 4.4 SE 15 20 8 11 1015.8 - 0.0
20/04:00pm 17.2 13.5 8.1 55 4.6 SE 17 22 9 12 1015.3 - 0.0
20/03:30pm 17.8 14.1 8.1 53 5.0 SE 17 20 9 11 1015.2 - 0.0
20/03:00pm 18.2 14.3 8.5 53 5.0 E 19 24 10 13 1015.0 1014.9 0.0
20/02:30pm 19.0 15.8 8.6 51 5.4 SE 15 20 8 11 1014.7 - 0.0
20/02:00pm 19.2 15.9 9.4 53 5.2 ESE 17 22 9 12 1014.6 - 0.0
20/01:30pm 19.4 16.8 7.8 47 6.0 S 11 20 6 11 1014.7 - 0.0
20/01:00pm 19.0 16.7 7.4 47 5.9 S 9 15 5 8 1015.0 - 0.0
20/12:30pm 18.7 15.9 8.4 51 5.3 S 13 19 7 10 1015.6 - 0.0
20/12:00pm 18.4 15.9 8.1 51 5.3 S 11 15 6 8 1016.0 1016.0 0.0
20/11:30am 18.1 16.4 7.5 50 5.4 NE 6 7 3 4 1016.5 - 0.0
20/11:00am 17.1 15.8 7.7 54 4.7 S 4 7 2 4 1017.1 - 0.0
20/10:30am 16.5 15.8 8.5 59 4.1 NE 2 7 1 4 1017.3 - 0.0
20/10:00am 15.5 15.6 10.3 71 2.7 CALM 0 7 0 4 1017.6 - 0.0
20/09:30am 13.5 12.6 7.9 69 2.8 E 2 6 1 3 1017.8 - 0.0
20/09:00am 11.7 11.1 7.6 76 2.0 CALM 0 0 0 0 1018.1 1018.0 0.0
20/08:30am 10.2 9.6 7.3 82 1.4 CALM 0 0 0 0 1018.2 - 0.0
20/08:00am 9.1 8.4 7.1 87 0.9 CALM 0 0 0 0 1018.2 - 0.0
20/07:30am 7.6 6.8 6.4 92 0.5 CALM 0 0 0 0 1018.0 - 0.0
20/07:00am 6.6 5.7 5.9 95 0.3 CALM 0 0 0 0 1017.7 - 0.0
20/06:30am 6.3 5.3 5.6 95 0.3 CALM 0 0 0 0 1017.4 - 0.0
20/06:00am 6.4 5.0 5.7 95 0.3 SW 2 7 1 4 1017.1 1017.1 0.0
20/05:30am 6.6 4.3 5.9 95 0.3 S 7 9 4 5 1016.8 - 0.0
20/05:00am 7.3 6.0 6.1 92 0.5 NNW 2 7 1 4 1016.8 - 0.0
20/04:30am 7.5 6.6 6.0 90 0.7 CALM 0 0 0 0 1016.8 - 0.0
20/04:00am 7.5 5.2 5.8 89 0.8 NW 7 13 4 7 1016.8 - 0.0
20/03:30am 7.9 5.9 6.2 89 0.8 WNW 6 7 3 4 1016.9 - 0.0
20/03:00am 7.9 6.4 6.7 92 0.6 WSW 4 7 2 4 1017.0 1017.0 0.0
20/02:30am 7.7 6.9 6.3 91 0.6 CALM 0 0 0 0 1017.4 - 0.0
20/02:00am 7.6 5.4 6.4 92 0.5 S 7 9 4 5 1017.7 - 0.0
20/01:30am 7.6 6.7 6.2 91 0.6 CALM 0 0 0 0 1018.0 - 0.0
20/01:00am 7.2 5.1 5.8 91 0.6 N 6 6 3 3 1018.2 - 0.0
20/12:30am 7.2 5.5 5.7 90 0.7 SSE 4 6 2 3 1018.3 - 0.0
20/12:00am 7.3 5.6 5.8 90 0.7 SW 4 7 2 4 1018.5 1018.4 0.0
 
Date/Time
EST
Temp
°C
App
Temp
°C
Dew
Point
Rel
Hum
%
Delta-T
°C
Wind Press
QNH
hPa
Press
MSL
hPa
Rain
since 9 am
mm
Dir
 
Spd
km/h
Gust
km/h
Spd
kts
Gust
kts
19/11:30pm 6.9 4.7 5.5 91 0.6 NNE 6 7 3 4 1018.4 - 0.0
19/11:00pm 7.3 6.2 5.3 87 0.9 CALM 0 0 0 0 1018.5 - 0.0
19/10:30pm 7.0 6.0 5.6 91 0.6 CALM 0 0 0 0 1018.6 - 0.0
19/10:00pm 7.0 6.0 5.5 90 0.7 CALM 0 0 0 0 1018.6 - 0.0
19/09:30pm 8.5 6.6 5.1 79 1.5 NW 4 7 2 4 1018.5 - 0.0
19/09:00pm 8.6 5.9 5.7 82 1.3 NW 9 11 5 6 1018.5 1018.4 0.0
19/08:30pm 8.6 6.0 5.9 83 1.2 SW 9 11 5 6 1018.4 - 0.0
19/08:00pm 8.6 6.3 5.5 81 1.4 S 7 11 4 6 1018.3 - 0.0
19/07:30pm 9.5 8.2 6.2 80 1.5 N 2 6 1 3 1018.0 - 0.0
19/07:00pm 10.4 8.2 6.2 75 2.0 WSW 7 13 4 7 1017.8 - 0.0
19/06:30pm 11.7 10.4 6.0 68 2.7 WSW 2 7 1 4 1017.6 - 0.0
19/06:00pm 13.2 10.6 6.3 63 3.3 WSW 9 9 5 5 1017.1 1017.1 0.0
19/05:30pm 13.8 10.9 6.4 61 3.6 SW 11 13 6 7 1016.9 - 0.0
19/05:00pm 14.9 11.2 6.2 56 4.2 SSW 15 20 8 11 1016.7 - 0.0
19/04:30pm 16.6 11.6 4.6 45 5.7 SW 20 30 11 16 1016.4 - 0.0
19/04:00pm 17.6 12.0 5.5 45 5.9 SW 24 35 13 19 1016.2 - 0.0
19/03:30pm 17.0 12.4 5.6 47 5.5 SW 19 26 10 14 1016.3 - 0.0
19/03:00pm 16.8 12.0 5.4 47 5.5 WSW 20 28 11 15 1016.1 1016.1 0.0
19/02:30pm 17.2 12.3 5.2 45 5.8 WSW 20 30 11 16 1016.1 - 0.0
19/02:00pm 17.3 12.0 4.9 44 5.9 WSW 22 30 12 16 1016.0 - 0.0
19/01:30pm 17.5 11.4 4.8 43 6.1 WSW 26 35 14 19 1016.0 - 0.0
19/01:00pm 17.0 11.9 6.2 49 5.3 SW 22 37 12 20 1016.1 - 0.0
19/12:30pm 16.7 12.2 5.9 49 5.2 WSW 19 26 10 14 1016.6 - 0.0
19/12:00pm 16.7 10.7 5.3 47 5.5 WSW 26 35 14 19 1016.9 1016.9 0.0
19/11:30am 16.5 10.9 5.2 47 5.4 WSW 24 33 13 18 1017.1 - 0.0
19/11:00am 16.7 12.0 5.9 49 5.2 WSW 20 32 11 17 1017.3 - 0.0
19/10:30am 16.2 12.0 5.8 50 5.0 SW 17 24 9 13 1017.6 - 0.0
19/10:00am 16.1 11.5 5.4 49 5.1 WSW 19 26 10 14 1017.4 - 0.0
19/09:30am 15.8 12.0 5.7 51 4.9 W 15 24 8 13 1017.4 - 0.0
19/09:00am 15.5 11.2 5.1 50 4.9 WSW 17 26 9 14 1017.5 1017.4 0.2
19/08:30am 15.1 9.6 4.2 48 5.0 WSW 22 33 12 18 1017.4 - 0.2
19/08:00am 14.3 10.2 4.3 51 4.6 W 15 26 8 14 1017.0 - 0.2
19/07:30am 12.8 11.2 4.5 57 3.8 E 2 11 1 6 1017.1 - 0.2
19/07:00am 12.6 10.2 4.3 57 3.8 NW 6 13 3 7 1016.9 - 0.2
19/06:30am 11.9 10.2 4.2 59 3.5 WNW 2 9 1 5 1016.7 - 0.2
19/06:00am 11.9 7.8 4.4 60 3.4 SW 15 22 8 12 1016.2 1016.2 0.2
19/05:30am 10.4 6.7 4.3 66 2.7 SSW 13 15 7 8 1016.0 - 0.2
19/05:00am 12.1 9.1 4.3 59 3.5 WSW 9 26 5 14 1015.8 - 0.2
19/04:30am 11.9 7.8 4.4 60 3.4 WSW 15 20 8 11 1015.8 - 0.2
19/04:00am 12.1 8.4 4.3 59 3.5 W 13 19 7 10 1015.6 - 0.2
19/03:30am 12.4 9.1 4.4 58 3.6 WNW 11 17 6 9 1015.8 - 0.2
19/03:00am 12.3 8.6 4.3 58 3.6 WNW 13 20 7 11 1015.8 1015.8 0.2
19/02:30am 12.1 8.0 4.6 60 3.4 W 15 20 8 11 1015.8 - 0.2
19/02:00am 12.0 8.7 4.7 61 3.3 W 11 17 6 9 1015.9 - 0.2
19/01:30am 13.3 9.6 4.2 54 4.2 WNW 13 20 7 11 1016.1 - 0.2
19/01:00am 13.1 8.6 4.3 55 4.0 W 17 24 9 13 1016.2 - 0.2
19/12:30am 13.0 8.6 4.7 57 3.8 WNW 17 26 9 14 1016.1 - 0.2
19/12:00am 13.1 9.5 4.8 57 3.8 WNW 13 26 7 14 1016.2 1016.2 0.2
 
Date/Time
EST
Temp
°C
App
Temp
°C
Dew
Point
Rel
Hum
%
Delta-T
°C
Wind Press
QNH
hPa
Press
MSL
hPa
Rain
since 9 am
mm
Dir
 
Spd
km/h
Gust
km/h
Spd
kts
Gust
kts
18/11:30pm 14.0 11.6 5.4 56 4.1 W 7 17 4 9 1015.9 - 0.2
18/11:00pm 14.4 9.8 5.7 56 4.1 WSW 19 33 10 18 1015.6 - 0.2
18/10:30pm 14.5 9.5 6.6 59 3.8 W 22 32 12 17 1015.6 - 0.2
18/10:00pm 14.9 10.6 7.0 59 3.9 W 19 24 10 13 1015.7 - 0.2
18/09:30pm 15.4 9.9 7.4 59 4.0 WSW 26 41 14 22 1015.5 - 0.2
18/09:00pm 15.6 11.4 8.1 61 3.8 SW 20 32 11 17 1015.3 1015.3 0.2
18/08:30pm 15.2 13.7 9.3 68 3.0 SSW 7 11 4 6 1015.3 - 0.2
18/08:00pm 15.4 11.1 9.3 67 3.1 SW 22 32 12 17 1014.7 - 0.2
18/07:30pm 15.1 11.7 10.7 75 2.3 SW 19 24 10 13 1014.7 - 0.2
18/07:00pm 15.4 11.2 11.2 76 2.2 SSW 24 39 13 21 1014.3 - 0.2
18/06:30pm 16.4 11.9 11.3 72 2.8 SW 26 43 14 23 1013.4 - 0.2
18/06:00pm 17.6 12.7 11.4 67 3.4 SSW 28 37 15 20 1012.5 1012.4 0.2
18/05:41pm 18.4 12.9 10.5 60 4.2 SSW 30 48 16 26 1012.1 - 0.2
18/05:33pm 19.7 13.5 9.3 51 5.5 S 32 44 17 24 1011.8 - 0.2
18/05:30pm 21.0 17.5 7.3 41 7.0 SW 15 20 8 11 1011.6 - 0.2

Other Formats:

Comma delimited format used in spreadsheet applications
http://www.bom.gov.au/fwo/IDN60801/IDN60801.95931.axf

JavaScript Object Notation format (JSON) in row-major order
http://www.bom.gov.au/fwo/IDN60801/IDN60801.95931.json